Skip to main content.
 TIME   TEMPERATURE   WINDSPEED   DIRECTION   HUMIDITY   BAROMETER   RAINFALL 
12:55 24.0°C (75.2°F) 0.0 kmh (0.0 mph) WNW 82% 1009.4hPa (29.81 inHg) 4.2mm (0.17 in.)
11:55 24.1°C (75.4 °F) 0.0 kmh (0.0 mph) WNW 84% 1009.6hPa (29.81 inHg) 4.2mm (0.17 in.)
10:55 24.4°C (75.9 °F) 0.0 kmh (0.0 mph) WNW 85% 1009.6hPa (29.81 inHg) 4.2mm (0.17 in.)
9:55 24.2°C (75.6 °F) 0.0 kmh (0.0 mph) WNW 88% 1009.7hPa (29.82 inHg) 4.2mm (0.17 in.)
8:55 26.6°C (79.9 °F) 0.0 kmh (0.0 mph) S 88% 1009.3hPa (29.80 inHg) 4.2mm (0.17 in.)
7:55 26.6°C (79.9 °F) 0.0 kmh (0.0 mph) WSW 68% 1008.8hPa (29.79 inHg) 0.0mm (0.00 in.)
6:55 27.1°C (80.8 °F) 11.1 kmh (6.9 mph) WSW 65% 1008.7hPa (29.79 inHg) 0.0mm (0.00 in.)
5:55 28.1°C (82.6 °F) 7.4 kmh (4.6 mph) WSW 62% 1008.9hPa (29.79 inHg) 0.0mm (0.00 in.)
4:55 29.4°C (84.9 °F) 0.0 kmh (0.0 mph) W 56% 1008.8hPa (29.79 inHg) 0.0mm (0.00 in.)
3:55 29.4°C (84.9 °F) 0.0 kmh (0.0 mph) WSW 58% 1009.0hPa (29.80 inHg) 0.0mm (0.00 in.)
2:55 29.5°C (85.1 °F) 5.6 kmh (3.5 mph) SW 61% 1009.5hPa (29.81 inHg) 0.0mm (0.00 in.)
1:55 28.9°C (84.0 °F) 5.6 kmh (3.5 mph) WSW 60% 1009.8hPa (29.82 inHg) 0.0mm (0.00 in.)
12:55 29.3°C (84.7 °F) 1.9 kmh (1.2 mph) W 68% 1010.5hPa (29.84 inHg) 0.0mm (0.00 in.)
11:55 27.8°C (82.0 °F) 3.7 kmh (2.3 mph) NNW 74% 1010.6hPa (29.84 inHg) 0.0mm (0.00 in.)
10:55 27.2°C (81.0 °F) 16.7 kmh (10.4 mph) NW 74% 1010.5hPa (29.84 inHg) 0.0mm (0.00 in.)
9:55 28.3°C (82.9 °F) 13.0 kmh (8.1 mph) SW 67% 1010.2hPa (29.83 inHg) 0.0mm (0.00 in.)
8:55 27.7°C (81.9 °F) 3.7 kmh (2.3 mph) N 71% 1009.8hPa (29.82 inHg) 0.0mm (0.00 in.)
7:55 27.4°C (81.3 °F) 5.6 kmh (3.5 mph) W 73% 1009.8hPa (29.82 inHg) 0.0mm (0.00 in.)
6:55 25.3°C (77.5 °F) 0.0 kmh (0.0 mph) NNW 83% 1009.7hPa (29.82 inHg) 0.0mm (0.00 in.)
5:55 25.4°C (77.7 °F) 1.9 kmh (1.2 mph) W 82% 1009.4hPa (29.81 inHg) 0.0mm (0.00 in.)
4:55 25.4°C (77.7 °F) 0.0 kmh (0.0 mph) W 81% 1010.0hPa (29.83 inHg) 0.0mm (0.00 in.)
3:55 25.5°C (77.9 °F) 1.9 kmh (1.2 mph) W 84% 1009.9hPa (29.82 inHg) 0.0mm (0.00 in.)
2:55 25.5°C (77.9 °F) 3.7 kmh (2.3 mph) W 82% 1010.0hPa (29.83 inHg) 0.0mm (0.00 in.)
1:55 25.6°C (78.1 °F) 1.9 kmh (1.2 mph) WNW 81% 1010.4hPa (29.84 inHg) 0.0mm (0.00 in.)